Time;durP1;ratioP1;P1;durP2;ratioP2;P2;SDS_P1;SDS_P2;PMS_P1;PMS_P2;Temp;Humidity;BMP_temperature;BMP_pressure;BME280_temperature;BME280_humidity;BME280_pressure;Samples;Min_cycle;Max_cycle;Signal;HPM_P1;HPM_P2
2022/12/26 00:01:08;;;;;;;0.70;0.70;;;;;;;9.85;81.75;99911.69;5114504;28;20043;-63
2022/12/26 00:03:37;;;;;;;0.85;0.85;;;;;;;9.95;81.84;99909.22;5107342;28;20036;-63
2022/12/26 00:06:12;;;;;;;1.17;1.08;;;;;;;10.00;81.59;99906.69;5093589;28;20040;-62
2022/12/26 00:08:43;;;;;;;0.95;0.95;;;;;;;10.01;81.46;99900.72;5093861;28;20047;-63
2022/12/26 00:11:12;;;;;;;0.40;0.40;;;;;;;10.03;80.86;99899.88;5105306;28;20051;-63
2022/12/26 00:13:41;;;;;;;1.65;1.25;;;;;;;10.03;81.03;99906.69;5113919;28;20036;-63
2022/12/26 00:16:12;;;;;;;1.40;1.10;;;;;;;10.05;80.97;99893.09;5113876;28;20044;-63
2022/12/26 00:18:41;;;;;;;1.02;1.00;;;;;;;10.06;80.81;99876.97;5114174;28;20043;-64
2022/12/26 00:21:12;;;;;;;1.70;1.40;;;;;;;10.15;80.46;99880.44;5111673;28;20096;-63
2022/12/26 00:23:43;;;;;;;2.40;1.77;;;;;;;10.17;80.36;99879.59;5093398;28;20494;-63
2022/12/26 00:26:14;;;;;;;0.50;0.50;;;;;;;10.14;79.82;99877.03;5099511;28;20044;-63
2022/12/26 00:28:43;;;;;;;0.98;0.95;;;;;;;10.07;79.99;99880.38;5101591;28;20040;-63
2022/12/26 00:31:14;;;;;;;0.43;0.43;;;;;;;10.06;80.06;99881.19;5093365;28;20044;-63
2022/12/26 00:33:43;;;;;;;1.80;1.65;;;;;;;9.98;80.24;99873.50;5113764;28;20482;-63
2022/12/26 00:36:15;;;;;;;0.52;0.52;;;;;;;9.93;80.02;99894.75;5113548;28;20070;-63
2022/12/26 00:38:46;;;;;;;0.75;0.75;;;;;;;9.89;80.69;99908.31;5108600;28;20040;-64
2022/12/26 00:41:15;;;;;;;0.70;0.70;;;;;;;9.85;80.79;99921.88;5109929;28;20134;-63
2022/12/26 00:43:44;;;;;;;0.73;0.73;;;;;;;9.82;80.73;99916.75;5103344;28;20126;-63
2022/12/26 00:46:13;;;;;;;0.88;0.88;;;;;;;9.76;80.92;99904.00;5098095;28;20046;-63
2022/12/26 00:48:42;;;;;;;0.68;0.68;;;;;;;9.75;81.14;99909.94;5108113;28;20460;-63
2022/12/26 00:51:11;;;;;;;1.42;1.27;;;;;;;9.72;81.13;99902.25;5104253;28;20043;-64
2022/12/26 00:53:40;;;;;;;0.80;0.80;;;;;;;9.66;81.65;99897.13;5105111;28;20101;-63
2022/12/26 00:56:11;;;;;;;1.77;1.63;;;;;;;9.67;81.33;99901.41;5104822;28;20062;-63
2022/12/26 00:58:40;;;;;;;0.63;0.63;;;;;;;9.62;81.89;99897.97;5113779;28;20383;-63
2022/12/26 01:01:13;;;;;;;0.77;0.77;;;;;;;9.59;81.66;99900.50;5100626;28;20426;-63
2022/12/26 01:03:43;;;;;;;2.08;1.42;;;;;;;9.54;81.54;99905.56;5096881;28;20134;-63
2022/12/26 01:06:12;;;;;;;0.60;0.60;;;;;;;9.51;81.95;99910.63;5096782;28;20044;-63
2022/12/26 01:08:41;;;;;;;0.68;0.68;;;;;;;9.50;81.76;99918.25;5097294;28;20123;-63
2022/12/26 01:11:14;;;;;;;0.68;0.68;;;;;;;9.47;82.28;99919.09;5096884;28;20368;-63
2022/12/26 01:13:43;;;;;;;0.40;0.40;;;;;;;9.48;82.10;99935.25;5109213;28;20047;-63
2022/12/26 01:16:12;;;;;;;0.88;0.85;;;;;;;9.50;82.20;99925.91;5116926;28;20118;-63
2022/12/26 01:18:41;;;;;;;1.25;1.15;;;;;;;9.52;82.76;99916.56;5117576;27;20058;-63
2022/12/26 01:21:11;;;;;;;1.40;1.08;;;;;;;9.53;82.68;99902.97;5116893;28;20130;-63
2022/12/26 01:23:40;;;;;;;1.13;0.68;;;;;;;9.53;82.30;99897.88;5116903;28;20055;-63
2022/12/26 01:26:08;;;;;;;1.17;1.08;;;;;;;9.55;82.11;99897.06;5110138;28;20040;-63
2022/12/26 01:28:51;;;;;;;0.60;0.60;;;;;;;9.56;82.88;99903.00;5102246;28;20112;-63
2022/12/26 01:31:22;;;;;;;1.13;1.02;;;;;;;9.55;82.69;99911.50;5102836;28;20044;-64
2022/12/26 01:33:51;;;;;;;1.75;1.33;;;;;;;9.52;82.30;99914.03;5100058;28;20051;-63
2022/12/26 01:36:20;;;;;;;2.30;1.00;;;;;;;9.50;82.92;99914.03;5100578;28;20043;-63
2022/12/26 01:38:49;;;;;;;0.67;0.67;;;;;;;9.48;83.00;99908.03;5103486;28;20580;-65
2022/12/26 01:41:18;;;;;;;0.52;0.52;;;;;;;9.51;82.38;99914.84;5094972;28;20285;-63
2022/12/26 01:43:53;;;;;;;1.92;1.15;;;;;;;9.52;82.88;99911.47;5094299;28;20044;-63
2022/12/26 01:46:30;;;;;;;1.23;0.98;;;;;;;9.57;82.55;99907.28;5101513;28;20044;-63
2022/12/26 01:49:01;;;;;;;1.55;1.42;;;;;;;9.61;82.47;99906.44;5099607;28;20393;-63
2022/12/26 01:51:36;;;;;;;0.40;0.40;;;;;;;9.64;82.65;99906.47;5094558;28;20048;-63
2022/12/26 01:54:08;;;;;;;0.75;0.75;;;;;;;9.64;82.77;99909.03;5094561;28;20375;-63
2022/12/26 01:56:58;;;;;;;1.27;1.17;;;;;;;9.64;82.87;99912.44;5103823;28;20043;-63
2022/12/26 01:59:32;;;;;;;0.60;0.60;;;;;;;9.62;82.48;99914.09;5112070;28;20066;-64
2022/12/26 02:02:03;;;;;;;0.57;0.57;;;;;;;9.59;82.40;99903.03;5098622;28;20400;-64
2022/12/26 02:07:19;;;;;;;0.85;0.73;;;;;;;9.54;82.75;99897.06;5101179;28;20078;-64
2022/12/26 02:09:47;;;;;;;0.45;0.45;;;;;;;9.52;83.16;99911.47;5100737;28;20490;-64
2022/12/26 02:12:20;;;;;;;0.70;0.70;;;;;;;9.48;83.19;99927.59;5101465;28;20044;-64
2022/12/26 02:15:11;;;;;;;0.77;0.77;;;;;;;9.41;82.93;99930.09;5098719;28;20296;-63
2022/12/26 02:17:41;;;;;;;3.22;1.25;;;;;;;9.40;82.94;99924.97;5101781;28;20081;-64
2022/12/26 02:20:19;;;;;;;0.73;0.73;;;;;;;9.37;83.19;99907.13;5095693;28;20450;-63
2022/12/26 02:23:18;;;;;;;1.13;1.07;;;;;;;9.37;83.50;99915.63;5114280;28;20050;-63
2022/12/26 02:26:15;;;;;;;1.52;1.33;;;;;;;9.35;83.93;99904.56;5114485;28;20047;-63
2022/12/26 02:29:01;;;;;;;0.77;0.77;;;;;;;9.33;83.87;99913.03;5115496;28;20061;-63
2022/12/26 02:31:38;;;;;;;1.00;1.00;;;;;;;9.31;84.26;99901.97;5115530;28;20063;-63
2022/12/26 02:34:14;;;;;;;0.75;0.75;;;;;;;9.29;83.81;99901.97;5103289;28;20047;-63
2022/12/26 02:37:04;;;;;;;0.40;0.40;;;;;;;9.28;83.66;99902.81;5099117;28;20067;-64
2022/12/26 02:39:51;;;;;;;1.70;1.60;;;;;;;9.33;83.91;99908.78;5110988;28;20066;-63
2022/12/26 02:42:29;;;;;;;0.47;0.47;;;;;;;9.33;84.01;99901.13;5104233;28;20587;-63
2022/12/26 02:47:57;;;;;;;2.33;0.90;;;;;;;9.32;84.67;99903.69;5105855;28;20046;-63
2022/12/26 03:15:17;;;;;;;0.88;0.75;;;;;;;9.25;84.36;99882.41;5094302;28;20070;-63
2022/12/26 03:17:53;;;;;;;1.67;1.52;;;;;;;9.23;84.74;99884.09;5104562;28;20500;-63
2022/12/26 03:20:28;;;;;;;1.60;1.27;;;;;;;9.18;84.98;99893.41;5098727;27;20094;-63
2022/12/26 03:23:01;;;;;;;1.05;0.77;;;;;;;9.14;84.45;99904.38;5103902;28;20101;-64
2022/12/26 03:28:19;;;;;;;;;;;;;;;9.09;85.41;99912.84;5103355;28;20027;-63
2022/12/26 03:30:50;;;;;;;2.80;1.63;;;;;;;9.06;85.44;99923.84;5104985;28;19951;-63
2022/12/26 03:36:12;;;;;;;1.33;1.02;;;;;;;9.03;85.61;99921.25;5093543;28;20040;-63
2022/12/26 03:38:54;;;;;;;0.98;0.98;;;;;;;9.00;85.43;99911.03;5092963;28;20113;-63
2022/12/26 04:20:31;;;;;;;1.73;1.30;;;;;;;8.79;87.24;99905.75;5105833;28;20465;-63
2022/12/26 04:44:51;;;;;;;1.08;0.95;;;;;;;8.60;87.72;99919.13;5112434;27;20048;-63
2022/12/26 04:47:20;;;;;;;0.70;0.68;;;;;;;8.59;87.12;99928.44;5103842;28;20124;-63
2022/12/26 04:52:53;;;;;;;2.67;2.13;;;;;;;8.60;87.28;99919.13;5107561;28;20108;-63
2022/12/26 04:55:18;;;;;;;0.93;0.93;;;;;;;8.55;87.55;99908.91;5099929;28;20135;-64
2022/12/26 04:57:48;;;;;;;1.05;0.85;;;;;;;8.52;87.42;99910.53;5108733;28;20044;-64
2022/12/26 05:00:17;;;;;;;1.65;1.45;;;;;;;8.50;88.40;99908.00;5097853;28;20036;-64
2022/12/26 05:10:50;;;;;;;1.58;1.48;;;;;;;8.46;87.78;99913.03;5080684;28;20401;-63
2022/12/26 05:13:20;;;;;;;1.27;1.20;;;;;;;8.43;88.29;99910.44;5106623;28;20494;-63
2022/12/26 05:29:19;;;;;;;1.45;1.35;;;;;;;8.24;88.20;99888.16;5072290;28;20039;-64
2022/12/26 05:31:47;;;;;;;9.75;1.30;;;;;;;8.19;88.01;99889.78;5113450;28;20071;-64
2022/12/26 05:34:19;;;;;;;1.58;1.48;;;;;;;8.16;89.00;99907.56;5107560;28;20035;-64
2022/12/26 05:36:51;;;;;;;1.13;0.98;;;;;;;8.13;87.97;99920.22;5111534;28;20116;-64
2022/12/26 05:39:20;;;;;;;1.20;1.10;;;;;;;8.11;89.04;99908.34;5100281;28;21952;-63
2022/12/26 05:41:49;;;;;;;3.07;2.03;;;;;;;8.12;88.58;99914.28;5105490;28;20109;-64
2022/12/26 05:44:19;;;;;;;2.55;1.67;;;;;;;8.11;88.57;99920.19;5105528;28;20032;-64
2022/12/26 05:46:48;;;;;;;2.67;2.28;;;;;;;8.08;89.63;99923.56;5108089;28;20056;-63
2022/12/26 05:49:17;;;;;;;0.52;0.52;;;;;;;8.04;88.55;99911.63;5095367;28;20161;-64
2022/12/26 05:51:46;;;;;;;1.30;1.20;;;;;;;7.98;88.93;99918.34;5104732;28;20055;-64
2022/12/26 05:54:14;;;;;;;10.63;1.98;;;;;;;7.94;88.79;99917.44;5109169;28;20039;-64
2022/12/26 05:56:43;;;;;;;3.47;1.48;;;;;;;7.91;88.95;99919.94;5121205;27;20040;-63
2022/12/26 05:59:17;;;;;;;2.53;1.95;;;;;;;7.89;88.53;99921.59;5099878;28;20040;-64
2022/12/26 06:01:47;;;;;;;1.17;1.08;;;;;;;7.80;88.90;99916.38;5105655;28;20126;-63
2022/12/26 06:04:16;;;;;;;1.58;1.48;;;;;;;7.74;88.78;99926.47;5096707;28;20056;-65
2022/12/26 06:06:44;;;;;;;2.30;1.77;;;;;;;7.71;88.40;99936.59;5105131;28;20078;-63
2022/12/26 06:09:13;;;;;;;0.98;0.93;;;;;;;7.68;89.82;99934.00;5103351;28;20029;-65
2022/12/26 06:11:42;;;;;;;1.00;1.00;;;;;;;7.58;88.96;99939.78;5109236;28;20143;-64
2022/12/26 06:14:16;;;;;;;1.08;0.98;;;;;;;7.53;89.16;99941.41;5097568;28;20041;-64
2022/12/26 06:16:46;;;;;;;1.90;1.50;;;;;;;7.52;89.56;99939.69;5106629;28;20121;-63
2022/12/26 06:19:15;;;;;;;2.58;2.35;;;;;;;7.49;89.55;99939.63;5098806;28;20035;-63
2022/12/26 06:21:44;;;;;;;1.10;1.07;;;;;;;7.48;89.00;99937.94;5099998;28;20071;-64
2022/12/26 06:24:14;;;;;;;1.75;1.65;;;;;;;7.48;90.06;99937.94;5093146;28;20036;-63
2022/12/26 06:26:42;;;;;;;1.77;1.67;;;;;;;7.57;89.52;99947.38;5093957;28;20403;-63
2022/12/26 06:29:11;;;;;;;1.52;1.35;;;;;;;7.59;89.97;99941.47;5095955;28;20093;-63
2022/12/26 06:31:40;;;;;;;0.70;0.70;;;;;;;7.60;90.04;99947.41;5104752;28;20052;-63
2022/12/26 06:34:11;;;;;;;0.88;0.85;;;;;;;7.60;89.88;99953.38;5098410;28;20044;-64
2022/12/26 06:36:41;;;;;;;2.22;2.03;;;;;;;7.58;90.12;99962.66;5094542;28;20490;-64
2022/12/26 06:39:09;;;;;;;1.48;1.38;;;;;;;7.57;89.93;99958.38;5111763;28;20493;-64
2022/12/26 06:41:38;;;;;;;3.97;2.25;;;;;;;7.55;90.09;99960.06;5106786;28;20061;-64
2022/12/26 06:44:07;;;;;;;4.13;1.67;;;;;;;7.50;90.62;99956.59;5104461;28;20123;-64
2022/12/26 06:46:43;;;;;;;1.90;1.33;;;;;;;7.56;90.58;99961.75;5100386;28;20059;-64
2022/12/26 06:49:14;;;;;;;1.30;0.93;;;;;;;7.57;90.28;99958.38;5103950;28;20082;-63
2022/12/26 06:51:43;;;;;;;0.93;0.88;;;;;;;7.56;90.08;99961.75;5106810;28;20054;-64
2022/12/26 06:54:12;;;;;;;0.88;0.88;;;;;;;7.52;91.08;99964.22;5102782;28;20146;-64
2022/12/26 06:56:41;;;;;;;2.05;1.90;;;;;;;7.54;90.55;99963.41;5096982;28;20076;-64
2022/12/26 06:59:11;;;;;;;8.53;3.87;;;;;;;7.53;89.99;99964.25;5103645;28;20131;-64
2022/12/26 07:01:40;;;;;;;1.90;1.23;;;;;;;7.53;90.11;99971.88;5103921;28;20060;-64
2022/12/26 07:04:12;;;;;;;1.25;1.15;;;;;;;7.56;91.14;99968.53;5097908;28;20032;-64
2022/12/26 07:06:43;;;;;;;1.88;1.77;;;;;;;7.57;90.66;99965.16;5106458;28;20123;-64
2022/12/26 07:09:14;;;;;;;0.88;0.88;;;;;;;7.53;90.75;99959.19;5107018;28;20177;-63
2022/12/26 07:11:45;;;;;;;3.17;2.90;;;;;;;7.64;90.82;99970.34;5102063;28;20115;-64
2022/12/26 07:14:15;;;;;;;2.75;1.98;;;;;;;7.63;91.00;99968.63;5104409;28;20058;-64
2022/12/26 07:16:45;;;;;;;2.25;1.63;;;;;;;7.60;90.72;99973.69;5094945;28;20040;-63
2022/12/26 07:19:16;;;;;;;7.53;3.35;;;;;;;7.58;90.58;99967.72;5100125;28;20040;-64
2022/12/26 07:21:45;;;;;;;;;;;;;;;7.60;90.81;99973.69;5112636;28;20544;-63
2022/12/26 07:24:15;;;;;;;;;;;;;;;7.60;91.15;99977.91;5116179;27;19976;-63
2022/12/26 07:26:43;;;;;;;1.52;1.42;;;;;;;7.59;90.39;99989.75;5115077;27;19920;-64
2022/12/26 07:29:12;;;;;;;5.25;3.00;;;;;;;7.57;90.69;99973.63;5107490;28;20126;-64
2022/12/26 07:31:41;;;;;;;1.33;1.23;;;;;;;7.54;91.06;99971.03;5094358;28;20131;-63
2022/12/26 07:34:10;;;;;;;1.15;1.05;;;;;;;7.57;90.79;99981.25;5102924;28;20046;-64
2022/12/26 07:36:39;;;;;;;3.28;3.00;;;;;;;7.61;90.92;99984.66;5112085;28;20039;-64
2022/12/26 07:39:12;;;;;;;;;;;;;;;7.58;90.59;99980.44;5096119;28;20093;-63
2022/12/26 07:44:19;;;;;;;3.60;3.30;;;;;;;7.53;90.20;99971.88;5093898;28;20090;-63
2022/12/26 07:46:48;;;;;;;3.08;2.88;;;;;;;7.53;90.36;99979.50;5119900;27;20065;-63
2022/12/26 07:49:17;;;;;;;3.15;2.42;;;;;;;7.56;91.09;99981.22;5134981;27;20031;-63
2022/12/26 07:51:46;;;;;;;4.22;3.70;;;;;;;7.57;90.04;99977.84;5134491;27;20515;-63
2022/12/26 07:54:16;;;;;;;9.27;1.90;;;;;;;7.62;90.26;99971.16;5099482;27;20040;-63
2022/12/26 07:56:45;;;;;;;2.40;2.20;;;;;;;7.66;90.52;99977.97;5093692;28;20104;-64
2022/12/26 07:59:15;;;;;;;1.08;1.00;;;;;;;7.67;90.32;99984.78;5094042;28;20573;-63
2022/12/26 08:01:44;;;;;;;3.35;2.28;;;;;;;7.67;90.69;99995.81;5093921;28;20048;-63
2022/12/26 08:04:13;;;;;;;3.75;3.20;;;;;;;7.69;91.05;100000.91;5105645;28;20058;-64
2022/12/26 08:06:42;;;;;;;4.78;2.88;;;;;;;7.70;91.02;100000.09;5113940;28;20069;-64
2022/12/26 08:09:15;;;;;;;1.97;1.57;;;;;;;7.71;90.70;99992.47;5103482;28;20042;-64
2022/12/26 08:11:46;;;;;;;1.52;1.30;;;;;;;7.73;89.99;99998.44;5105781;28;20044;-63
2022/12/26 08:14:16;;;;;;;2.67;1.95;;;;;;;7.76;90.78;100001.03;5102985;28;20124;-63
2022/12/26 08:16:46;;;;;;;2.25;2.05;;;;;;;7.78;90.71;99993.41;5114223;28;20062;-63
2022/12/26 08:19:20;;;;;;;4.55;2.30;;;;;;;7.82;90.51;99990.94;5109143;28;20142;-63
2022/12/26 08:21:49;;;;;;;3.47;2.50;;;;;;;7.86;90.45;99997.81;5112083;28;20136;-63
2022/12/26 08:24:19;;;;;;;2.73;2.00;;;;;;;7.89;90.44;99997.81;5104052;28;20063;-63
2022/12/26 08:26:51;;;;;;;9.10;3.60;;;;;;;7.93;90.64;99991.97;5097965;28;20071;-63
2022/12/26 08:29:19;;;;;;;4.95;3.72;;;;;;;7.97;90.53;99996.25;5099977;28;20039;-63
2022/12/26 08:31:48;;;;;;;2.53;2.33;;;;;;;8.02;90.33;100004.81;5109646;28;20043;-63
2022/12/26 08:34:17;;;;;;;7.18;4.50;;;;;;;8.05;90.66;100004.88;5102325;28;20493;-63
2022/12/26 08:36:45;;;;;;;3.90;2.17;;;;;;;8.10;90.80;99993.06;5095590;28;20054;-62
2022/12/26 08:39:14;;;;;;;4.18;3.42;;;;;;;8.18;90.42;99998.28;5110434;28;20067;-63
2022/12/26 08:41:43;;;;;;;4.00;3.40;;;;;;;8.24;90.79;100005.09;5092371;28;20541;-62
2022/12/26 08:44:16;;;;;;;8.60;3.65;;;;;;;8.26;90.71;100013.59;5098294;28;20043;-63
2022/12/26 08:46:55;;;;;;;3.15;1.90;;;;;;;8.32;90.33;100013.75;5097033;28;20044;-64
2022/12/26 08:49:24;;;;;;;2.47;2.28;;;;;;;8.35;90.79;100023.97;5094455;28;20486;-63
2022/12/26 08:51:52;;;;;;;2.90;2.70;;;;;;;8.41;90.16;100024.03;5092391;28;20052;-63
2022/12/26 08:54:22;;;;;;;2.67;2.45;;;;;;;8.46;90.87;100028.34;5109224;28;20028;-64
2022/12/26 08:56:51;;;;;;;10.00;2.93;;;;;;;8.52;90.56;100032.63;5093633;28;20127;-63
2022/12/26 08:59:21;;;;;;;2.38;2.20;;;;;;;8.63;90.98;100043.81;5101296;28;20490;-64
2022/12/26 09:01:50;;;;;;;5.32;2.88;;;;;;;8.69;90.07;100043.88;5097673;28;20040;-63
2022/12/26 09:04:19;;;;;;;2.43;1.67;;;;;;;8.71;90.36;100039.66;5093584;28;20488;-64
2022/12/26 09:06:47;;;;;;;2.28;2.03;;;;;;;8.72;90.91;100041.41;5095254;28;20048;-63
2022/12/26 09:09:16;;;;;;;8.05;4.32;;;;;;;8.76;90.70;100038.03;5107814;28;20067;-65
2022/12/26 09:11:45;;;;;;;2.67;2.47;;;;;;;8.78;90.38;100031.31;5108588;28;20044;-64
2022/12/26 09:14:14;;;;;;;2.60;2.40;;;;;;;8.82;89.99;100030.50;5096402;28;20047;-64
2022/12/26 09:16:46;;;;;;;10.67;3.17;;;;;;;8.88;89.95;100030.56;5102557;28;20032;-63
2022/12/26 09:19:20;;;;;;;3.03;1.60;;;;;;;8.90;90.21;100025.50;5096218;28;21949;-64
2022/12/26 09:22:49;;;;;;;2.58;2.38;;;;;;;8.90;90.13;100026.31;5098682;28;20043;-63
2022/12/26 09:24:41;;;;;;;1.77;1.67;;;;;;;8.96;90.57;100031.50;5100909;28;20178;-64
2022/12/26 09:27:10;;;;;;;2.40;2.15;;;;;;;9.01;90.54;100022.22;5104505;28;20054;-63
2022/12/26 09:29:38;;;;;;;1.33;1.23;;;;;;;9.09;89.81;100022.31;5115826;28;20118;-63
2022/12/26 09:32:10;;;;;;;4.18;2.20;;;;;;;9.15;90.18;100028.31;5099772;28;20032;-63
2022/12/26 09:34:38;;;;;;;3.00;2.00;;;;;;;9.13;89.95;100019.81;5098817;28;20071;-66
2022/12/26 09:37:07;;;;;;;1.83;1.70;;;;;;;9.23;89.90;100041.13;5094188;28;20093;-63
2022/12/26 09:39:36;;;;;;;18.45;1.95;;;;;;;9.29;90.18;100046.28;5096134;28;20047;-63
2022/12/26 09:42:20;;;;;;;3.13;2.88;;;;;;;9.32;89.41;100031.91;5098610;28;20047;-63
2022/12/26 09:44:56;;;;;;;2.33;1.73;;;;;;;9.35;89.60;100031.94;5099749;28;20044;-63
2022/12/26 09:47:34;;;;;;;3.55;2.42;;;;;;;9.40;89.01;100027.75;5099092;28;20040;-65
2022/12/26 09:50:11;;;;;;;1.63;1.52;;;;;;;9.37;89.23;100030.25;5107319;28;20047;-63
2022/12/26 09:52:48;;;;;;;2.75;1.77;;;;;;;9.39;88.66;100037.91;5097880;28;20075;-63
2022/12/26 09:55:32;;;;;;;3.20;2.45;;;;;;;9.42;88.43;100036.25;5099213;28;20044;-63
2022/12/26 09:58:07;;;;;;;2.80;2.60;;;;;;;9.45;89.07;100023.50;5105835;28;20127;-63
2022/12/26 10:00:44;;;;;;;2.58;1.80;;;;;;;9.49;88.78;100018.44;5099065;28;20046;-63
2022/12/26 10:03:16;;;;;;;3.30;2.35;;;;;;;9.49;88.07;100005.72;5102567;28;20055;-63
2022/12/26 10:05:57;;;;;;;3.53;2.58;;;;;;;9.54;88.16;99994.72;5097460;28;20486;-64
2022/12/26 10:08:36;;;;;;;2.33;2.15;;;;;;;9.59;87.81;99994.75;5102721;28;20094;-62
2022/12/26 10:11:14;;;;;;;1.58;1.48;;;;;;;9.60;88.55;99991.38;5096381;28;20474;-63
2022/12/26 10:13:50;;;;;;;1.77;1.67;;;;;;;9.62;88.12;99994.81;5106875;28;20388;-63
2022/12/26 10:16:24;;;;;;;4.35;2.53;;;;;;;9.60;87.76;99996.47;5102681;28;20520;-64
2022/12/26 10:19:03;;;;;;;1.40;1.30;;;;;;;9.60;87.56;100001.59;5102622;28;20040;-65
2022/12/26 10:21:47;;;;;;;3.10;2.80;;;;;;;9.58;88.02;99993.03;5106238;28;20066;-63
2022/12/26 10:24:20;;;;;;;2.72;2.45;;;;;;;9.62;87.71;99989.69;5105873;28;20044;-64
2022/12/26 10:26:52;;;;;;;1.88;1.23;;;;;;;9.65;87.75;99975.28;5102024;28;20070;-64
2022/12/26 10:29:25;;;;;;;1.67;1.58;;;;;;;9.67;87.20;99962.56;5109617;28;20048;-63
2022/12/26 10:31:59;;;;;;;4.13;2.42;;;;;;;9.62;87.15;99956.56;5108395;27;20096;-63
2022/12/26 10:34:34;;;;;;;3.50;2.92;;;;;;;9.59;87.01;99956.53;5103662;28;20494;-64
2022/12/26 10:37:10;;;;;;;3.42;2.72;;;;;;;9.61;86.66;99977.78;5101589;28;20035;-64
2022/12/26 10:39:45;;;;;;;1.98;1.25;;;;;;;9.58;86.65;99972.66;5096666;28;20040;-63
2022/12/26 10:42:33;;;;;;;1.25;1.15;;;;;;;9.54;87.06;99964.16;5099836;28;20040;-64
2022/12/26 10:45:12;;;;;;;2.33;1.90;;;;;;;9.55;86.54;99954.81;5099522;28;20048;-63
2022/12/26 10:47:44;;;;;;;1.92;1.77;;;;;;;9.55;86.54;99962.47;5099136;28;20390;-63
2022/12/26 10:50:19;;;;;;;2.70;2.47;;;;;;;9.52;86.52;99952.25;5094852;28;20078;-63
2022/12/26 10:52:56;;;;;;;5.78;2.47;;;;;;;9.49;86.99;99947.13;5101657;28;20056;-63
2022/12/26 10:55:28;;;;;;;4.28;2.50;;;;;;;9.52;87.27;99947.16;5096552;28;20043;-63
2022/12/26 10:58:03;;;;;;;6.32;2.30;;;;;;;9.49;87.04;99953.06;5102763;28;20048;-63
2022/12/26 11:00:34;;;;;;;1.77;1.67;;;;;;;9.50;87.16;99941.19;5093720;28;20040;-63
2022/12/26 11:03:05;;;;;;;2.38;2.08;;;;;;;9.50;87.12;99938.66;5101105;28;20105;-63
2022/12/26 11:05:40;;;;;;;2.10;1.90;;;;;;;9.50;86.96;99933.56;5111255;28;20478;-64
2022/12/26 11:08:33;;;;;;;2.60;2.35;;;;;;;9.50;87.45;99943.75;5100056;28;20106;-63
2022/12/26 11:11:20;;;;;;;1.75;1.65;;;;;;;9.49;87.50;99939.47;5105767;28;20486;-63
2022/12/26 11:13:54;;;;;;;1.88;1.60;;;;;;;9.51;87.18;99937.78;5094697;28;20052;-63
2022/12/26 11:16:33;;;;;;;3.17;2.42;;;;;;;9.54;87.61;99925.06;5105072;28;20448;-63
2022/12/26 11:19:03;;;;;;;3.22;2.05;;;;;;;9.60;87.78;99930.25;5108132;27;20039;-66
2022/12/26 11:21:33;;;;;;;;;;;;;;;9.61;87.52;99940.44;5101955;28;20063;-63
2022/12/26 11:24:18;;;;;;;1.73;1.63;;;;;;;9.57;87.58;99909.81;5101366;28;19925;-65
2022/12/26 11:26:47;;;;;;;2.53;1.85;;;;;;;9.67;87.45;99921.78;5101811;28;20051;-64
2022/12/26 11:29:19;;;;;;;2.42;2.22;;;;;;;9.76;87.16;99921.84;5104191;28;20063;-64
2022/12/26 11:31:53;;;;;;;1.30;1.20;;;;;;;9.80;87.27;99918.47;5105490;28;20134;-63
2022/12/26 11:34:31;;;;;;;1.05;1.02;;;;;;;9.83;87.13;99924.44;5106739;28;20040;-63
2022/12/26 11:37:03;;;;;;;2.47;1.27;;;;;;;9.83;86.55;99918.47;5099052;28;20119;-63
2022/12/26 11:39:34;;;;;;;3.50;2.50;;;;;;;9.86;86.34;99909.13;5111920;27;20044;-63
2022/12/26 11:42:10;;;;;;;2.22;2.00;;;;;;;9.94;86.12;99916.84;5099148;28;20039;-63
2022/12/26 11:44:44;;;;;;;2.90;1.88;;;;;;;9.96;86.10;99921.09;5105486;28;20048;-63
2022/12/26 11:47:15;;;;;;;3.00;2.38;;;;;;;9.96;85.91;99912.59;5103781;28;20040;-64
2022/12/26 11:49:52;;;;;;;2.70;2.50;;;;;;;9.94;85.94;99906.63;5100991;28;20056;-63
2022/12/26 11:52:37;;;;;;;3.80;2.28;;;;;;;9.94;85.45;99896.44;5098034;28;20097;-63
2022/12/26 11:55:25;;;;;;;2.72;2.03;;;;;;;9.91;85.43;99901.56;5102909;28;20382;-64
2022/12/26 11:58:00;;;;;;;2.38;1.88;;;;;;;9.90;85.45;99899.81;5105901;28;20035;-63
2022/12/26 12:00:29;;;;;;;1.67;1.55;;;;;;;9.88;85.41;99901.53;5101237;28;20478;-63
2022/12/26 12:02:58;;;;;;;3.38;3.08;;;;;;;9.91;85.32;99901.56;5092522;28;20474;-63
2022/12/26 12:05:42;;;;;;;2.95;2.42;;;;;;;9.88;85.54;99915.13;5098980;28;20048;-63
2022/12/26 12:08:37;;;;;;;6.50;3.20;;;;;;;9.83;85.04;99903.19;5099116;28;20036;-62
2022/12/26 12:11:21;;;;;;;2.10;1.90;;;;;;;9.84;85.62;99909.97;5114590;28;20122;-63
2022/12/26 12:14:14;;;;;;;3.03;2.03;;;;;;;9.84;85.44;99913.38;5099883;28;20085;-64
2022/12/26 12:16:54;;;;;;;8.85;3.70;;;;;;;9.88;85.64;99909.16;5090871;28;20066;-64
2022/12/26 12:19:38;;;;;;;1.50;1.23;;;;;;;9.98;85.67;99908.38;5098373;28;20052;-63
2022/12/26 12:22:24;;;;;;;2.60;2.40;;;;;;;10.02;85.42;99903.31;5099335;28;20036;-64
2022/12/26 12:25:16;;;;;;;3.03;2.05;;;;;;;10.09;85.59;99896.53;5099900;28;20482;-64
2022/12/26 12:27:52;;;;;;;4.05;1.02;;;;;;;10.08;85.30;99894.81;5099575;28;20046;-63
2022/12/26 12:30:24;;;;;;;3.55;3.25;;;;;;;10.00;85.09;99897.34;5099416;28;20048;-63
2022/12/26 12:33:23;;;;;;;2.33;2.15;;;;;;;9.93;84.92;99894.75;5095335;28;20040;-63
2022/12/26 12:36:02;;;;;;;1.42;1.33;;;;;;;9.89;84.93;99893.00;5110283;28;20043;-63
2022/12/26 12:38:36;;;;;;;3.35;2.95;;;;;;;9.85;85.07;99897.25;5099837;28;20047;-63
2022/12/26 12:41:29;;;;;;;3.97;3.13;;;;;;;9.82;84.91;99896.38;5096084;28;20378;-63
2022/12/26 12:44:04;;;;;;;1.77;1.63;;;;;;;9.76;85.00;99902.31;5098661;28;20105;-63
2022/12/26 12:46:43;;;;;;;13.73;3.30;;;;;;;9.75;85.13;99907.38;5112806;28;20054;-63
2022/12/26 12:49:35;;;;;;;6.93;3.05;;;;;;;9.72;85.40;99909.91;5107191;28;20113;-64
2022/12/26 12:52:18;;;;;;;2.90;2.50;;;;;;;9.69;85.32;99907.34;5096580;28;20040;-63
2022/12/26 12:55:12;;;;;;;28.98;2.35;;;;;;;9.66;85.65;99900.53;5092858;28;20040;-63
2022/12/26 12:57:50;;;;;;;1.90;1.65;;;;;;;9.66;85.47;99897.13;5096997;28;20040;-63
2022/12/26 13:00:22;;;;;;;2.92;2.00;;;;;;;9.62;86.00;99897.97;5095235;28;20403;-64
2022/12/26 13:02:57;;;;;;;9.07;2.25;;;;;;;9.61;86.21;99896.25;5102171;28;20048;-63
2022/12/26 13:05:38;;;;;;;1.50;1.40;;;;;;;9.56;86.07;99892.81;5110246;28;20063;-64
2022/12/26 13:08:12;;;;;;;1.77;1.50;;;;;;;9.49;86.41;99888.53;5098309;28;20070;-63
2022/12/26 13:10:49;;;;;;;5.05;4.45;;;;;;;9.50;85.82;99893.66;5104280;28;20053;-63
2022/12/26 13:13:25;;;;;;;3.78;2.92;;;;;;;9.49;86.43;99894.47;5099113;28;20087;-63
2022/12/26 13:15:59;;;;;;;1.98;1.70;;;;;;;9.49;86.24;99885.97;5100653;28;20051;-64
2022/12/26 13:18:32;;;;;;;2.83;2.53;;;;;;;9.48;86.08;99890.22;5096768;28;20052;-64
2022/12/26 13:21:06;;;;;;;4.07;2.63;;;;;;;9.47;86.40;99892.75;5101668;28;20079;-63
2022/12/26 13:26:20;;;;;;;2.83;2.58;;;;;;;9.41;86.29;99896.97;5102486;28;20139;-64
2022/12/26 13:29:02;;;;;;;2.40;2.20;;;;;;;9.42;86.59;99895.28;5099904;28;20432;-64
2022/12/26 13:31:36;;;;;;;1.30;1.20;;;;;;;9.41;86.55;99893.56;5097456;28;20451;-63
2022/12/26 13:34:09;;;;;;;2.05;1.85;;;;;;;9.41;86.98;99899.50;5102664;28;20040;-64
2022/12/26 13:36:44;;;;;;;10.15;2.05;;;;;;;9.40;86.82;99910.56;5099515;28;20040;-64
2022/12/26 13:39:30;;;;;;;3.88;2.97;;;;;;;9.36;86.97;99911.34;5101028;28;20498;-64
2022/12/26 13:44:45;;;;;;;2.55;1.63;;;;;;;9.31;87.04;99920.66;5101988;28;20044;-63
2022/12/26 13:47:33;;;;;;;4.68;3.35;;;;;;;9.29;86.83;99914.69;5105820;28;20044;-64
2022/12/26 13:50:23;;;;;;;6.90;2.70;;;;;;;9.24;87.09;99916.34;5099073;28;20405;-63
2022/12/26 13:52:52;;;;;;;5.03;2.30;;;;;;;9.22;87.84;99917.19;5108238;28;20062;-63
2022/12/26 13:55:33;;;;;;;3.55;2.38;;;;;;;9.19;87.81;99922.28;5115064;28;20409;-63
2022/12/26 13:58:20;;;;;;;1.98;1.85;;;;;;;9.15;87.49;99920.50;5095999;28;20079;-63
2022/12/26 14:00:52;;;;;;;1.85;1.73;;;;;;;9.12;87.69;99920.47;5095946;28;20040;-64
2022/12/26 14:03:46;;;;;;;4.45;3.20;;;;;;;9.07;87.79;99917.91;5095824;28;20101;-63
2022/12/26 14:06:40;;;;;;;1.70;1.60;;;;;;;9.01;87.75;99907.66;5095935;28;20056;-63
2022/12/26 14:09:35;;;;;;;2.30;2.10;;;;;;;8.96;87.81;99911.88;5095180;28;20547;-63
2022/12/26 14:12:23;;;;;;;8.27;2.28;;;;;;;8.94;87.93;99905.91;5093369;28;20125;-63
2022/12/26 14:15:15;;;;;;;3.53;2.53;;;;;;;8.90;88.36;99911.78;5099569;28;20043;-63
2022/12/26 14:17:54;;;;;;;1.58;1.48;;;;;;;8.85;88.56;99916.00;5100969;28;20055;-63
2022/12/26 14:20:38;;;;;;;3.60;3.28;;;;;;;8.81;88.60;99913.41;5103214;28;20155;-63
2022/12/26 14:23:24;;;;;;;2.47;2.28;;;;;;;8.73;88.47;99914.16;5093458;28;20040;-63